Time;durP1;ratioP1;P1;durP2;ratioP2;P2;SDS_P1;SDS_P2;PMS_P1;PMS_P2;Temp;Humidity;BMP_temperature;BMP_pressure;BME280_temperature;BME280_humidity;BME280_pressure;Samples;Min_cycle;Max_cycle;Signal;HPM_P1;HPM_P2
2021/04/18 00:00:44;;;;;;;6.93;4.63;;;;;;;;;;5090270;28;20432;-55
2021/04/18 00:03:10;;;;;;;8.13;4.83;;;;;;;;;;5090469;28;20397;-54
2021/04/18 00:05:36;;;;;;;11.33;5.30;;;;;;;;;;5090208;28;20406;-55
2021/04/18 00:08:02;;;;;;;6.53;4.80;;;;;;;;;;5090665;28;20467;-54
2021/04/18 00:10:35;;;;;;;9.30;4.60;;;;;;;;;;5090313;28;20201;-54
2021/04/18 00:13:01;;;;;;;8.05;4.65;;;;;;;;;;5090234;28;20400;-55
2021/04/18 00:15:27;;;;;;;9.02;4.70;;;;;;;;;;5090331;28;20654;-55
2021/04/18 00:17:53;;;;;;;10.57;4.70;;;;;;;;;;5088898;28;20180;-54
2021/04/18 00:20:20;;;;;;;9.85;5.00;;;;;;;;;;5091411;28;20434;-55
2021/04/18 00:22:46;;;;;;;6.57;4.90;;;;;;;;;;5094132;28;20184;-55
2021/04/18 00:25:13;;;;;;;7.47;4.90;;;;;;;;;;5093691;28;20175;-54
2021/04/18 00:27:39;;;;;;;8.63;4.47;;;;;;;;;;5093690;28;20403;-56
2021/04/18 00:30:10;;;;;;;6.30;5.25;;;;;;;;;;5094151;28;20224;-54
2021/04/18 00:32:37;;;;;;;8.60;5.35;;;;;;;;;;5093817;28;20176;-54
2021/04/18 00:35:03;;;;;;;16.30;6.18;;;;;;;;;;5093554;28;20784;-56
2021/04/18 00:37:29;;;;;;;10.80;4.60;;;;;;;;;;5093452;28;20647;-56
2021/04/18 00:39:55;;;;;;;9.70;5.33;;;;;;;;;;5093572;28;20239;-55
2021/04/18 00:42:21;;;;;;;6.90;5.37;;;;;;;;;;5093307;28;20438;-54
2021/04/18 00:44:47;;;;;;;10.20;5.57;;;;;;;;;;5093542;28;20407;-55
2021/04/18 00:47:13;;;;;;;5.43;4.40;;;;;;;;;;5093249;28;20395;-55
2021/04/18 00:49:39;;;;;;;8.38;5.63;;;;;;;;;;5093355;28;20427;-56
2021/04/18 00:52:05;;;;;;;10.27;4.83;;;;;;;;;;5093437;28;20587;-55
2021/04/18 00:54:31;;;;;;;7.80;5.50;;;;;;;;;;5093086;28;20443;-55
2021/04/18 00:56:57;;;;;;;12.73;7.00;;;;;;;;;;5092918;28;20196;-54
2021/04/18 00:59:23;;;;;;;8.63;5.40;;;;;;;;;;5092881;28;20453;-55
2021/04/18 01:01:49;;;;;;;7.70;4.77;;;;;;;;;;5092949;28;20395;-54
2021/04/18 01:04:15;;;;;;;12.40;6.73;;;;;;;;;;5092618;28;20424;-54
2021/04/18 01:06:41;;;;;;;8.00;5.97;;;;;;;;;;5092801;28;20404;-55
2021/04/18 01:09:07;;;;;;;8.80;5.93;;;;;;;;;;5092691;28;20919;-54
2021/04/18 01:11:33;;;;;;;6.60;4.80;;;;;;;;;;5091581;28;20413;-55
2021/04/18 01:13:59;;;;;;;6.90;5.00;;;;;;;;;;5093012;28;20411;-54
2021/04/18 01:16:25;;;;;;;8.90;5.33;;;;;;;;;;5092485;28;20481;-55
2021/04/18 01:18:51;;;;;;;9.20;4.97;;;;;;;;;;5092794;28;20419;-55
2021/04/18 01:21:17;;;;;;;7.87;5.20;;;;;;;;;;5092661;28;20410;-55
2021/04/18 01:23:43;;;;;;;5.53;4.50;;;;;;;;;;5092836;28;20395;-55
2021/04/18 01:26:10;;;;;;;9.27;4.97;;;;;;;;;;5092255;28;20211;-54
2021/04/18 01:28:37;;;;;;;6.32;4.88;;;;;;;;;;5092709;28;20485;-55
2021/04/18 01:31:04;;;;;;;16.27;5.78;;;;;;;;;;5091514;28;20162;-55
2021/04/18 01:33:30;;;;;;;7.50;5.32;;;;;;;;;;5092617;28;20696;-55
2021/04/18 01:35:56;;;;;;;6.55;5.72;;;;;;;;;;5092166;28;20207;-55
2021/04/18 01:38:22;;;;;;;11.05;6.72;;;;;;;;;;5092365;28;20565;-55
2021/04/18 01:40:48;;;;;;;7.70;5.15;;;;;;;;;;5092175;28;20212;-55
2021/04/18 01:43:15;;;;;;;10.37;5.83;;;;;;;;;;5092395;28;20174;-55
2021/04/18 01:45:41;;;;;;;13.48;5.70;;;;;;;;;;5092126;28;20488;-55
2021/04/18 01:48:08;;;;;;;7.88;5.57;;;;;;;;;;5092281;28;20171;-56
2021/04/18 01:50:38;;;;;;;12.18;5.70;;;;;;;;;;5092344;28;20213;-54
2021/04/18 01:53:04;;;;;;;9.02;5.13;;;;;;;;;;5092333;28;20257;-56
2021/04/18 01:55:30;;;;;;;7.23;4.80;;;;;;;;;;5091998;28;20281;-55
2021/04/18 01:57:56;;;;;;;6.83;4.67;;;;;;;;;;5091112;28;20415;-54
2021/04/18 02:00:22;;;;;;;8.20;5.30;;;;;;;;;;5092184;28;20443;-55
2021/04/18 02:02:48;;;;;;;5.78;4.47;;;;;;;;;;5091995;28;20418;-54
2021/04/18 02:05:15;;;;;;;7.00;5.33;;;;;;;;;;5091864;28;20170;-54
2021/04/18 02:07:41;;;;;;;5.13;4.63;;;;;;;;;;5091776;28;20411;-55
2021/04/18 02:10:07;;;;;;;9.55;5.15;;;;;;;;;;5091540;28;20193;-55
2021/04/18 02:12:33;;;;;;;9.05;5.57;;;;;;;;;;5091720;28;20638;-55
2021/04/18 02:14:59;;;;;;;7.10;6.23;;;;;;;;;;5091730;28;20196;-55
2021/04/18 02:17:25;;;;;;;10.03;5.00;;;;;;;;;;5091698;28;20388;-55
2021/04/18 02:19:51;;;;;;;9.13;4.90;;;;;;;;;;5091470;28;20460;-55
2021/04/18 02:22:17;;;;;;;15.67;5.87;;;;;;;;;;5091664;28;20410;-55
2021/04/18 02:24:43;;;;;;;7.67;5.63;;;;;;;;;;5091620;28;20970;-55
2021/04/18 02:27:09;;;;;;;5.80;5.15;;;;;;;;;;5091417;28;20408;-54
2021/04/18 02:29:35;;;;;;;7.47;5.27;;;;;;;;;;5091465;28;20199;-55
2021/04/18 02:32:01;;;;;;;6.50;4.80;;;;;;;;;;5091692;28;20423;-55
2021/04/18 02:34:27;;;;;;;8.43;5.35;;;;;;;;;;5091417;28;20930;-55
2021/04/18 02:36:53;;;;;;;9.57;5.72;;;;;;;;;;5091063;28;20201;-55
2021/04/18 02:39:19;;;;;;;9.97;5.83;;;;;;;;;;5091069;28;20220;-55
2021/04/18 02:41:45;;;;;;;9.13;5.60;;;;;;;;;;5091232;28;20407;-54
2021/04/18 02:44:11;;;;;;;6.65;5.28;;;;;;;;;;5091290;28;20399;-54
2021/04/18 02:46:37;;;;;;;6.70;6.00;;;;;;;;;;5090843;28;20173;-54
2021/04/18 02:49:03;;;;;;;8.68;5.55;;;;;;;;;;5091190;28;20443;-55
2021/04/18 02:51:30;;;;;;;5.65;4.90;;;;;;;;;;5090942;28;20173;-55
2021/04/18 02:53:59;;;;;;;8.10;6.03;;;;;;;;;;5091122;28;20224;-55
2021/04/18 02:56:25;;;;;;;7.10;5.38;;;;;;;;;;5090807;28;20190;-54
2021/04/18 02:58:51;;;;;;;9.05;5.50;;;;;;;;;;5090908;28;20284;-54
2021/04/18 03:01:17;;;;;;;9.95;5.15;;;;;;;;;;5090946;28;20166;-55
2021/04/18 03:03:43;;;;;;;14.30;5.35;;;;;;;;;;5090961;28;20170;-55
2021/04/18 03:06:09;;;;;;;9.00;6.10;;;;;;;;;;5090517;28;20685;-55
2021/04/18 03:08:35;;;;;;;14.02;6.00;;;;;;;;;;5090748;28;20919;-55
2021/04/18 03:11:01;;;;;;;8.97;5.80;;;;;;;;;;5090933;28;20165;-55
2021/04/18 03:13:27;;;;;;;7.63;5.23;;;;;;;;;;5090894;28;20627;-55
2021/04/18 03:15:53;;;;;;;7.53;5.03;;;;;;;;;;5090569;28;20537;-55
2021/04/18 03:18:19;;;;;;;7.77;5.80;;;;;;;;;;5090815;28;20396;-55
2021/04/18 03:20:45;;;;;;;10.37;6.37;;;;;;;;;;5091266;28;20982;-55
2021/04/18 03:23:11;;;;;;;9.53;5.70;;;;;;;;;;5090709;28;20400;-55
2021/04/18 03:25:37;;;;;;;8.75;6.07;;;;;;;;;;5090866;28;20474;-54
2021/04/18 03:28:03;;;;;;;5.65;5.15;;;;;;;;;;5090866;28;20181;-55
2021/04/18 03:30:31;;;;;;;8.60;5.97;;;;;;;;;;5090771;28;20189;-55
2021/04/18 03:32:57;;;;;;;8.52;5.90;;;;;;;;;;5090717;28;20709;-55
2021/04/18 03:35:23;;;;;;;8.85;5.22;;;;;;;;;;5090816;28;20216;-55
2021/04/18 03:37:50;;;;;;;7.88;5.18;;;;;;;;;;5091125;28;20193;-55
2021/04/18 03:40:16;;;;;;;8.67;5.50;;;;;;;;;;5090948;28;20192;-55
2021/04/18 03:42:42;;;;;;;6.55;5.60;;;;;;;;;;5090958;28;20392;-55
2021/04/18 03:45:08;;;;;;;7.40;5.60;;;;;;;;;;5090465;28;20695;-55
2021/04/18 03:47:35;;;;;;;23.10;5.40;;;;;;;;;;5090750;28;20407;-55
2021/04/18 03:50:01;;;;;;;6.75;6.05;;;;;;;;;;5090301;28;20184;-55
2021/04/18 03:52:27;;;;;;;10.85;4.80;;;;;;;;;;5090814;28;20181;-55
2021/04/18 03:54:53;;;;;;;8.85;6.70;;;;;;;;;;5092268;28;20670;-54
2021/04/18 03:57:19;;;;;;;7.10;5.27;;;;;;;;;;5094387;28;20177;-55
2021/04/18 03:59:45;;;;;;;10.07;6.13;;;;;;;;;;5094273;28;20436;-54
2021/04/18 04:02:11;;;;;;;8.27;5.60;;;;;;;;;;5094388;28;20427;-54
2021/04/18 04:04:37;;;;;;;7.65;5.45;;;;;;;;;;5094107;28;20169;-55
2021/04/18 04:07:03;;;;;;;10.15;5.78;;;;;;;;;;5094215;28;20179;-55
2021/04/18 04:09:30;;;;;;;13.23;5.65;;;;;;;;;;5094303;28;20285;-55
2021/04/18 04:11:56;;;;;;;7.97;5.05;;;;;;;;;;5094282;28;20189;-55
2021/04/18 04:14:22;;;;;;;12.73;6.10;;;;;;;;;;5094136;28;20162;-55
2021/04/18 04:16:48;;;;;;;11.40;4.85;;;;;;;;;;5093634;28;20228;-55
2021/04/18 04:19:14;;;;;;;6.93;5.07;;;;;;;;;;5093955;28;20220;-55
2021/04/18 04:21:40;;;;;;;6.40;5.10;;;;;;;;;;5093855;28;20764;-56
2021/04/18 04:24:06;;;;;;;7.27;5.23;;;;;;;;;;5093989;28;20875;-55
2021/04/18 04:26:32;;;;;;;9.45;5.22;;;;;;;;;;5093516;28;20770;-54
2021/04/18 04:28:58;;;;;;;9.57;5.60;;;;;;;;;;5093788;28;20190;-55
2021/04/18 04:31:24;;;;;;;7.50;6.27;;;;;;;;;;5093716;28;20424;-54
2021/04/18 04:33:50;;;;;;;17.77;6.37;;;;;;;;;;5093659;28;20418;-55
2021/04/18 04:36:16;;;;;;;7.57;5.50;;;;;;;;;;5093222;28;20545;-54
2021/04/18 04:38:43;;;;;;;6.70;5.30;;;;;;;;;;5093746;28;20419;-56
2021/04/18 04:41:09;;;;;;;8.73;5.15;;;;;;;;;;5093573;28;20970;-54
2021/04/18 04:43:35;;;;;;;8.60;5.50;;;;;;;;;;5093453;28;20244;-54
2021/04/18 04:46:01;;;;;;;7.65;5.82;;;;;;;;;;5093282;28;20391;-54
2021/04/18 04:48:29;;;;;;;13.43;5.70;;;;;;;;;;5093032;28;20258;-54
2021/04/18 04:50:55;;;;;;;7.10;5.75;;;;;;;;;;5093732;28;20396;-54
2021/04/18 04:53:23;;;;;;;8.17;5.80;;;;;;;;;;5093140;28;20248;-55
2021/04/18 04:55:49;;;;;;;8.45;5.45;;;;;;;;;;5092914;28;20450;-55
2021/04/18 04:58:15;;;;;;;7.60;5.30;;;;;;;;;;5093091;28;20158;-55
2021/04/18 05:00:42;;;;;;;9.73;5.85;;;;;;;;;;5093188;28;20834;-56
2021/04/18 05:03:09;;;;;;;6.75;5.57;;;;;;;;;;5093169;28;20656;-55
2021/04/18 05:05:35;;;;;;;9.68;6.25;;;;;;;;;;5092765;28;20169;-55
2021/04/18 05:08:01;;;;;;;9.93;6.13;;;;;;;;;;5093076;28;20194;-55
2021/04/18 05:10:27;;;;;;;9.83;5.90;;;;;;;;;;5093037;28;20228;-54
2021/04/18 05:12:53;;;;;;;8.23;5.13;;;;;;;;;;5093064;28;20743;-54
2021/04/18 05:15:22;;;;;;;5.97;5.32;;;;;;;;;;5092380;28;20444;-55
2021/04/18 05:17:48;;;;;;;9.48;7.20;;;;;;;;;;5093012;28;20162;-55
2021/04/18 05:20:16;;;;;;;10.70;5.90;;;;;;;;;;5092708;28;20243;-55
2021/04/18 05:22:41;;;;;;;8.20;6.30;;;;;;;;;;5093627;28;20160;-56
2021/04/18 05:25:08;;;;;;;9.57;6.70;;;;;;;;;;5092517;28;20169;-55
2021/04/18 05:27:34;;;;;;;6.00;5.45;;;;;;;;;;5092918;28;20400;-55
2021/04/18 05:30:01;;;;;;;6.57;5.10;;;;;;;;;;5092669;28;20211;-55
2021/04/18 05:32:27;;;;;;;8.20;6.10;;;;;;;;;;5092990;28;20397;-55
2021/04/18 05:34:53;;;;;;;10.27;5.70;;;;;;;;;;5092621;28;20968;-55
2021/04/18 05:37:20;;;;;;;10.53;6.77;;;;;;;;;;5092857;28;20423;-55
2021/04/18 05:39:46;;;;;;;7.63;5.57;;;;;;;;;;5092715;28;20791;-54
2021/04/18 05:42:13;;;;;;;8.20;6.07;;;;;;;;;;5092447;28;20401;-55
2021/04/18 05:44:39;;;;;;;9.40;5.90;;;;;;;;;;5092627;28;20401;-55
2021/04/18 05:47:05;;;;;;;10.80;6.30;;;;;;;;;;5092233;28;20573;-55
2021/04/18 05:49:33;;;;;;;7.60;6.17;;;;;;;;;;5092617;28;20791;-55
2021/04/18 05:51:59;;;;;;;9.75;6.68;;;;;;;;;;5092253;28;20396;-55
2021/04/18 05:54:25;;;;;;;15.10;6.35;;;;;;;;;;5092293;28;20239;-55
2021/04/18 05:56:51;;;;;;;9.53;6.67;;;;;;;;;;5091808;28;20686;-56
2021/04/18 05:59:17;;;;;;;11.93;6.20;;;;;;;;;;5092048;28;20443;-55
2021/04/18 06:01:44;;;;;;;9.03;6.33;;;;;;;;;;5092042;28;20407;-56
2021/04/18 06:04:10;;;;;;;9.20;6.80;;;;;;;;;;5092069;28;20827;-55
2021/04/18 06:06:36;;;;;;;15.33;6.53;;;;;;;;;;5091629;28;20408;-54
2021/04/18 06:09:04;;;;;;;10.53;7.80;;;;;;;;;;5091918;28;20970;-55
2021/04/18 06:11:30;;;;;;;8.97;6.77;;;;;;;;;;5091746;28;20410;-55
2021/04/18 06:13:56;;;;;;;8.93;6.90;;;;;;;;;;5091696;28;20817;-55
2021/04/18 06:16:22;;;;;;;10.87;6.93;;;;;;;;;;5091348;28;20538;-56
2021/04/18 06:18:49;;;;;;;13.90;7.00;;;;;;;;;;5091181;28;20435;-56
2021/04/18 06:21:15;;;;;;;9.07;6.60;;;;;;;;;;5091731;28;20398;-56
2021/04/18 06:23:41;;;;;;;8.67;6.53;;;;;;;;;;5091547;28;20401;-55
2021/04/18 06:26:09;;;;;;;8.67;7.23;;;;;;;;;;5091285;28;20409;-55
2021/04/18 06:28:35;;;;;;;13.60;6.93;;;;;;;;;;5091472;28;20409;-55
2021/04/18 06:31:01;;;;;;;9.10;5.80;;;;;;;;;;5091519;28;20484;-55
2021/04/18 06:33:26;;;;;;;8.97;6.83;;;;;;;;;;5091382;28;20907;-55
2021/04/18 06:35:53;;;;;;;13.23;6.80;;;;;;;;;;5091192;28;20509;-55
2021/04/18 06:38:19;;;;;;;14.90;7.30;;;;;;;;;;5091363;28;20401;-56
2021/04/18 06:40:46;;;;;;;11.97;7.80;;;;;;;;;;5091052;28;20428;-55
2021/04/18 06:43:12;;;;;;;7.93;6.57;;;;;;;;;;5091407;28;20775;-55
2021/04/18 06:45:40;;;;;;;11.60;7.80;;;;;;;;;;5090919;28;20485;-55
2021/04/18 06:48:06;;;;;;;10.73;7.03;;;;;;;;;;5091326;28;20432;-55
2021/04/18 06:50:32;;;;;;;11.13;7.50;;;;;;;;;;5091024;28;20935;-56
2021/04/18 06:52:59;;;;;;;10.10;7.90;;;;;;;;;;5091278;28;20413;-55
2021/04/18 06:55:29;;;;;;;14.73;8.27;;;;;;;;;;5090694;28;20480;-56
2021/04/18 06:57:55;;;;;;;12.20;8.30;;;;;;;;;;5091438;28;20393;-55
2021/04/18 07:00:22;;;;;;;11.40;7.57;;;;;;;;;;5091015;28;20517;-54
2021/04/18 07:02:48;;;;;;;13.33;7.97;;;;;;;;;;5091291;28;20409;-55
2021/04/18 07:05:14;;;;;;;14.07;9.40;;;;;;;;;;5090608;28;20491;-55
2021/04/18 07:07:42;;;;;;;9.90;7.77;;;;;;;;;;5090580;28;20934;-55
2021/04/18 07:10:13;;;;;;;15.00;8.40;;;;;;;;;;5089281;28;20472;-54
2021/04/18 07:12:42;;;;;;;12.27;8.43;;;;;;;;;;5090504;28;20435;-56
2021/04/18 07:15:09;;;;;;;13.90;8.97;;;;;;;;;;5090191;28;20532;-55
2021/04/18 07:17:48;;;;;;;24.43;10.17;;;;;;;;;;5090102;28;20403;-55
2021/04/18 07:20:15;;;;;;;13.67;8.33;;;;;;;;;;5090254;28;20417;-55
2021/04/18 07:22:41;;;;;;;14.80;8.57;;;;;;;;;;5090264;28;20848;-55
2021/04/18 07:25:08;;;;;;;14.70;9.13;;;;;;;;;;5090037;28;20438;-55
2021/04/18 07:27:49;;;;;;;9.83;8.40;;;;;;;;;;5089866;28;20395;-55
2021/04/18 07:30:17;;;;;;;17.20;9.97;;;;;;;;;;5092953;28;20838;-55
2021/04/18 07:32:44;;;;;;;16.73;8.53;;;;;;;;;;5094366;28;20404;-55
2021/04/18 07:35:30;;;;;;;13.97;9.73;;;;;;;;;;5094629;28;20478;-55
2021/04/18 07:38:18;;;;;;;15.60;9.00;;;;;;;;;;5094728;28;20395;-56
2021/04/18 07:40:44;;;;;;;14.50;8.10;;;;;;;;;;5094455;28;20435;-55
2021/04/18 07:43:12;;;;;;;13.73;8.87;;;;;;;;;;5094470;28;20430;-55
2021/04/18 07:45:39;;;;;;;12.87;8.67;;;;;;;;;;5094612;28;20431;-56
2021/04/18 07:48:08;;;;;;;14.07;9.43;;;;;;;;;;5094439;28;20957;-55
2021/04/18 07:50:34;;;;;;;15.20;8.23;;;;;;;;;;5094480;28;20950;-55
2021/04/18 07:53:00;;;;;;;16.90;9.67;;;;;;;;;;5094460;28;20785;-55
2021/04/18 07:55:26;;;;;;;15.23;8.40;;;;;;;;;;5094109;28;20501;-56
2021/04/18 07:57:52;;;;;;;11.93;9.00;;;;;;;;;;5094390;28;20395;-55
2021/04/18 08:00:19;;;;;;;12.17;9.30;;;;;;;;;;5094105;28;20431;-54
2021/04/18 08:02:49;;;;;;;11.43;8.30;;;;;;;;;;5094342;28;20400;-56
2021/04/18 08:05:18;;;;;;;13.23;8.83;;;;;;;;;;5093940;28;20958;-57
2021/04/18 08:08:02;;;;;;;14.13;9.63;;;;;;;;;;5094346;28;20409;-53
2021/04/18 08:10:34;;;;;;;14.33;8.57;;;;;;;;;;5093993;28;20471;-56
2021/04/18 08:13:21;;;;;;;16.53;9.70;;;;;;;;;;5094250;28;20434;-55
2021/04/18 08:15:46;;;;;;;15.50;9.20;;;;;;;;;;5093456;28;20872;-55
2021/04/18 08:18:15;;;;;;;15.00;9.50;;;;;;;;;;5094009;28;20432;-55
2021/04/18 08:20:45;;;;;;;13.10;9.57;;;;;;;;;;5093835;28;20423;-55
2021/04/18 08:23:14;;;;;;;10.83;8.87;;;;;;;;;;5093952;28;20407;-55
2021/04/18 08:26:01;;;;;;;15.47;8.90;;;;;;;;;;5093766;28;20887;-55
2021/04/18 08:28:28;;;;;;;13.77;8.90;;;;;;;;;;5093502;28;20449;-55
2021/04/18 08:31:08;;;;;;;12.90;9.10;;;;;;;;;;5093507;28;20397;-55
2021/04/18 08:33:40;;;;;;;12.27;9.07;;;;;;;;;;5092035;28;20416;-55
2021/04/18 08:36:13;;;;;;;22.53;9.40;;;;;;;;;;5093142;28;21211;-55
2021/04/18 08:38:41;;;;;;;10.73;8.83;;;;;;;;;;5093748;28;20423;-56
2021/04/18 08:41:14;;;;;;;15.50;8.90;;;;;;;;;;5093232;28;20815;-55
2021/04/18 08:43:40;;;;;;;10.53;8.47;;;;;;;;;;5093561;28;20402;-55
2021/04/18 08:46:06;;;;;;;13.23;8.77;;;;;;;;;;5093236;28;20898;-54
2021/04/18 08:48:32;;;;;;;16.57;9.10;;;;;;;;;;5093225;28;20403;-55
2021/04/18 08:51:03;;;;;;;12.77;8.87;;;;;;;;;;5093422;28;20459;-55
2021/04/18 08:53:50;;;;;;;21.80;9.33;;;;;;;;;;5093310;28;20410;-56
2021/04/18 08:56:16;;;;;;;11.10;8.50;;;;;;;;;;5092984;28;20512;-54
2021/04/18 08:58:42;;;;;;;14.10;9.90;;;;;;;;;;5093202;28;20915;-55
2021/04/18 09:01:12;;;;;;;14.93;9.30;;;;;;;;;;5093544;28;20891;-56
2021/04/18 09:03:39;;;;;;;10.80;7.90;;;;;;;;;;5093436;28;20402;-56
2021/04/18 09:06:22;;;;;;;12.50;8.33;;;;;;;;;;5093197;28;20781;-55
2021/04/18 09:08:58;;;;;;;14.50;8.77;;;;;;;;;;5089918;28;20459;-57
2021/04/18 09:11:24;;;;;;;10.20;8.53;;;;;;;;;;5092249;28;20366;-55
2021/04/18 09:13:56;;;;;;;14.60;8.77;;;;;;;;;;5092952;28;20433;-55
2021/04/18 09:16:42;;;;;;;11.03;7.60;;;;;;;;;;5092732;28;20458;-56
2021/04/18 09:19:20;;;;;;;10.60;8.87;;;;;;;;;;5091310;28;20850;-56
2021/04/18 09:21:57;;;;;;;15.83;8.67;;;;;;;;;;5092953;28;20978;-55
2021/04/18 09:24:24;;;;;;;15.13;9.43;;;;;;;;;;5092803;28;20404;-56
2021/04/18 09:26:58;;;;;;;14.20;10.30;;;;;;;;;;5090009;28;20416;-55
2021/04/18 09:29:27;;;;;;;13.97;9.03;;;;;;;;;;5092505;28;20481;-55
2021/04/18 09:32:04;;;;;;;12.13;8.20;;;;;;;;;;5092652;28;20486;-55
2021/04/18 09:34:30;;;;;;;12.43;8.87;;;;;;;;;;5092836;28;20378;-56
2021/04/18 09:36:57;;;;;;;19.67;11.33;;;;;;;;;;5091563;28;20451;-55
2021/04/18 09:39:30;;;;;;;12.93;7.73;;;;;;;;;;5091966;28;20424;-56
2021/04/18 09:41:57;;;;;;;9.90;8.17;;;;;;;;;;5091017;28;20462;-55
2021/04/18 09:44:31;;;;;;;10.27;8.80;;;;;;;;;;5092373;28;20457;-56
2021/04/18 09:46:59;;;;;;;15.43;8.53;;;;;;;;;;5092019;28;20449;-55
2021/04/18 09:49:25;;;;;;;13.00;8.97;;;;;;;;;;5092246;28;20399;-55
2021/04/18 09:51:52;;;;;;;12.87;8.03;;;;;;;;;;5091219;28;20465;-56
2021/04/18 09:54:26;;;;;;;12.30;9.07;;;;;;;;;;5092225;28;20434;-55
2021/04/18 09:57:10;;;;;;;11.77;8.30;;;;;;;;;;5091664;28;20417;-57
2021/04/18 09:59:36;;;;;;;13.40;9.87;;;;;;;;;;5091995;28;20445;-56
2021/04/18 10:02:13;;;;;;;10.73;8.77;;;;;;;;;;5091962;28;20762;-55
2021/04/18 10:04:40;;;;;;;13.17;8.37;;;;;;;;;;5092113;28;20387;-55
2021/04/18 10:07:06;;;;;;;12.80;8.50;;;;;;;;;;5091617;28;20396;-55
2021/04/18 10:09:49;;;;;;;10.43;8.03;;;;;;;;;;5091887;28;20390;-55
2021/04/18 10:12:15;;;;;;;15.60;8.23;;;;;;;;;;5091741;28;20370;-55
2021/04/18 10:14:41;;;;;;;10.20;7.83;;;;;;;;;;5073634;28;20468;-55
2021/04/18 10:17:07;;;;;;;10.10;8.33;;;;;;;;;;5091384;28;20955;-56
2021/04/18 10:19:33;;;;;;;12.87;9.00;;;;;;;;;;5091637;28;20426;-55
2021/04/18 10:22:08;;;;;;;12.67;9.00;;;;;;;;;;5091719;28;20478;-55
2021/04/18 10:24:36;;;;;;;11.60;9.30;;;;;;;;;;5091754;28;20399;-55
2021/04/18 10:27:03;;;;;;;15.20;8.90;;;;;;;;;;5081114;28;20411;-55
2021/04/18 10:29:30;;;;;;;10.43;9.33;;;;;;;;;;5070977;28;20420;-55
2021/04/18 10:31:56;;;;;;;11.00;8.70;;;;;;;;;;5071185;28;20396;-55
2021/04/18 10:34:22;;;;;;;13.93;9.77;;;;;;;;;;5071009;28;20491;-55
2021/04/18 10:36:48;;;;;;;12.03;8.70;;;;;;;;;;5070716;28;20573;-55
2021/04/18 10:39:15;;;;;;;16.13;9.80;;;;;;;;;;5070881;28;20746;-56
2021/04/18 10:41:45;;;;;;;9.80;8.57;;;;;;;;;;5071274;28;20454;-55
2021/04/18 10:44:15;;;;;;;15.13;8.87;;;;;;;;;;5070927;28;20409;-55
2021/04/18 10:46:42;;;;;;;16.10;9.10;;;;;;;;;;5070864;28;20378;-55
2021/04/18 10:49:08;;;;;;;11.63;9.30;;;;;;;;;;5070986;28;20923;-55
2021/04/18 10:51:33;;;;;;;11.10;10.00;;;;;;;;;;5071311;28;20487;-55
2021/04/18 10:53:59;;;;;;;12.40;9.37;;;;;;;;;;5071211;28;20471;-55
2021/04/18 10:56:25;;;;;;;11.73;9.97;;;;;;;;;;5070433;28;20459;-56
2021/04/18 10:58:51;;;;;;;12.33;10.17;;;;;;;;;;5070543;28;20464;-55
2021/04/18 11:01:18;;;;;;;11.13;8.60;;;;;;;;;;5070485;28;20911;-55
2021/04/18 11:03:44;;;;;;;16.67;9.50;;;;;;;;;;5070639;28;20396;-55
2021/04/18 11:06:12;;;;;;;13.40;9.37;;;;;;;;;;5070445;28;20415;-55
2021/04/18 11:08:39;;;;;;;15.80;9.50;;;;;;;;;;5070685;28;20487;-55
2021/04/18 11:11:05;;;;;;;15.67;10.27;;;;;;;;;;5070585;28;20920;-55
2021/04/18 11:13:32;;;;;;;9.80;8.80;;;;;;;;;;5070594;28;20415;-56
2021/04/18 11:15:58;;;;;;;13.47;9.03;;;;;;;;;;5070197;28;20452;-55
2021/04/18 11:18:24;;;;;;;9.60;8.43;;;;;;;;;;5070495;28;20393;-55
2021/04/18 11:20:50;;;;;;;12.37;9.10;;;;;;;;;;5070614;28;20908;-56
2021/04/18 11:23:16;;;;;;;14.50;8.67;;;;;;;;;;5071005;28;20396;-55
2021/04/18 11:25:42;;;;;;;11.17;8.50;;;;;;;;;;5069511;28;20400;-55
2021/04/18 11:28:08;;;;;;;10.27;9.27;;;;;;;;;;5074107;28;20429;-54
2021/04/18 11:30:34;;;;;;;10.10;7.30;;;;;;;;;;5100812;28;20515;-55
2021/04/18 11:33:01;;;;;;;13.27;8.50;;;;;;;;;;5072718;28;20411;-55
2021/04/18 11:35:29;;;;;;;10.23;8.00;;;;;;;;;;5090548;28;20444;-55
2021/04/18 11:37:56;;;;;;;10.80;8.00;;;;;;;;;;5090488;28;20399;-55
2021/04/18 11:40:24;;;;;;;12.17;8.87;;;;;;;;;;5089783;28;20423;-55
2021/04/18 11:42:52;;;;;;;12.13;7.50;;;;;;;;;;5090290;28;20396;-55
2021/04/18 11:45:20;;;;;;;9.27;8.13;;;;;;;;;;5090233;28;20514;-55
2021/04/18 11:47:47;;;;;;;11.30;8.63;;;;;;;;;;5089836;28;20402;-55
2021/04/18 11:50:15;;;;;;;17.03;9.43;;;;;;;;;;5088617;28;20424;-55
2021/04/18 11:52:42;;;;;;;9.93;7.10;;;;;;;;;;5090490;28;20956;-55
2021/04/18 11:55:08;;;;;;;16.30;8.57;;;;;;;;;;5089861;28;20490;-55
2021/04/18 11:57:54;;;;;;;12.87;8.70;;;;;;;;;;5090247;28;20392;-55
2021/04/18 12:00:21;;;;;;;10.17;8.40;;;;;;;;;;5089905;28;20410;-55
2021/04/18 12:02:48;;;;;;;14.87;8.00;;;;;;;;;;5090926;28;20415;-56
2021/04/18 12:05:15;;;;;;;11.90;7.90;;;;;;;;;;5090236;28;20911;-55
2021/04/18 12:07:42;;;;;;;13.67;7.67;;;;;;;;;;5090276;28;20494;-56
2021/04/18 12:10:11;;;;;;;9.67;6.77;;;;;;;;;;5090318;28;20458;-55
2021/04/18 12:12:41;;;;;;;7.70;6.27;;;;;;;;;;5090427;28;20403;-55
2021/04/18 12:15:10;;;;;;;8.17;6.70;;;;;;;;;;5090601;28;20403;-55
2021/04/18 12:17:36;;;;;;;6.93;6.23;;;;;;;;;;5094090;28;20959;-55
2021/04/18 12:20:10;;;;;;;8.30;6.50;;;;;;;;;;5094048;28;20782;-55
2021/04/18 12:22:37;;;;;;;7.83;6.50;;;;;;;;;;5093781;28;20408;-55
2021/04/18 12:25:05;;;;;;;10.20;7.43;;;;;;;;;;5093662;28;20801;-56
2021/04/18 12:27:31;;;;;;;9.27;7.10;;;;;;;;;;5093738;28;20759;-55
2021/04/18 12:29:57;;;;;;;12.60;7.57;;;;;;;;;;5093755;28;20420;-55
2021/04/18 12:32:24;;;;;;;8.17;7.33;;;;;;;;;;5093680;28;20399;-55
2021/04/18 12:34:51;;;;;;;7.73;6.30;;;;;;;;;;5093750;28;20392;-55
2021/04/18 12:37:17;;;;;;;15.77;7.60;;;;;;;;;;5093468;28;20411;-56
2021/04/18 12:39:45;;;;;;;12.13;7.57;;;;;;;;;;5093464;28;20418;-56
2021/04/18 12:42:12;;;;;;;11.60;6.90;;;;;;;;;;5093653;28;20422;-56
2021/04/18 12:44:39;;;;;;;7.60;6.80;;;;;;;;;;5093571;28;20408;-55
2021/04/18 12:47:09;;;;;;;9.13;6.53;;;;;;;;;;5093312;28;20395;-55
2021/04/18 12:49:36;;;;;;;10.83;7.20;;;;;;;;;;5093146;28;20420;-57
2021/04/18 12:52:03;;;;;;;12.93;6.37;;;;;;;;;;5093452;28;20396;-56
2021/04/18 12:54:30;;;;;;;8.57;6.70;;;;;;;;;;5093247;28;20399;-56
2021/04/18 12:56:57;;;;;;;10.53;7.77;;;;;;;;;;5093050;28;20489;-55
2021/04/18 12:59:23;;;;;;;10.57;6.97;;;;;;;;;;5093234;28;20471;-56
2021/04/18 13:01:50;;;;;;;16.00;7.30;;;;;;;;;;5093205;28;20402;-56
2021/04/18 13:04:17;;;;;;;7.80;7.00;;;;;;;;;;5092921;28;20431;-55
2021/04/18 13:06:44;;;;;;;7.93;6.97;;;;;;;;;;5092961;28;20427;-55
2021/04/18 13:09:10;;;;;;;10.50;7.63;;;;;;;;;;5093023;28;20431;-56
2021/04/18 13:11:38;;;;;;;11.00;6.90;;;;;;;;;;5093001;28;20489;-55
2021/04/18 13:14:04;;;;;;;7.77;6.83;;;;;;;;;;5093062;28;20818;-55
2021/04/18 13:16:31;;;;;;;8.37;7.50;;;;;;;;;;5092612;28;20439;-55
2021/04/18 13:18:57;;;;;;;7.70;6.30;;;;;;;;;;5092952;28;20753;-56
2021/04/18 13:21:23;;;;;;;8.47;7.30;;;;;;;;;;5091996;28;20399;-55
2021/04/18 13:23:54;;;;;;;7.33;6.63;;;;;;;;;;5092794;28;20407;-56
2021/04/18 13:26:20;;;;;;;8.40;6.93;;;;;;;;;;5092434;28;20782;-56
2021/04/18 13:28:48;;;;;;;11.50;7.80;;;;;;;;;;5092637;28;20416;-55
2021/04/18 13:31:13;;;;;;;10.43;6.77;;;;;;;;;;5092490;28;20404;-55
2021/04/18 13:33:39;;;;;;;7.77;6.93;;;;;;;;;;5092665;28;20461;-56
2021/04/18 13:36:06;;;;;;;9.60;6.60;;;;;;;;;;5092161;28;20463;-56
2021/04/18 13:38:32;;;;;;;8.23;7.30;;;;;;;;;;5092381;28;20400;-56
2021/04/18 13:40:59;;;;;;;10.67;7.80;;;;;;;;;;5092496;28;20396;-55
2021/04/18 13:43:25;;;;;;;9.70;8.50;;;;;;;;;;5092475;28;20426;-55
2021/04/18 13:45:50;;;;;;;10.17;7.53;;;;;;;;;;5092016;28;20898;-56
2021/04/18 13:48:16;;;;;;;13.53;8.27;;;;;;;;;;5092196;28;20490;-55
2021/04/18 13:50:42;;;;;;;12.27;8.63;;;;;;;;;;5092157;28;20426;-55
2021/04/18 13:53:11;;;;;;;11.00;7.77;;;;;;;;;;5091982;28;20794;-55
2021/04/18 13:55:38;;;;;;;9.50;8.13;;;;;;;;;;5091904;28;20435;-55
2021/04/18 13:58:04;;;;;;;12.50;8.30;;;;;;;;;;5092048;28;20400;-55
2021/04/18 14:00:30;;;;;;;11.20;9.10;;;;;;;;;;5092126;28;20783;-55
2021/04/18 14:02:55;;;;;;;9.57;8.07;;;;;;;;;;5092315;28;20456;-55
2021/04/18 14:05:22;;;;;;;10.60;7.77;;;;;;;;;;5091869;28;20399;-55
2021/04/18 14:07:49;;;;;;;9.67;7.77;;;;;;;;;;5092055;28;20400;-55
2021/04/18 14:10:16;;;;;;;12.23;8.30;;;;;;;;;;5091811;28;20508;-55
2021/04/18 14:12:42;;;;;;;8.47;7.40;;;;;;;;;;5091882;28;20534;-55
2021/04/18 14:15:09;;;;;;;8.50;7.70;;;;;;;;;;5091532;28;20482;-55
2021/04/18 14:17:35;;;;;;;8.33;7.20;;;;;;;;;;5092059;28;20391;-55
2021/04/18 14:20:03;;;;;;;10.83;7.90;;;;;;;;;;5091637;28;20416;-56
2021/04/18 14:22:29;;;;;;;8.33;7.43;;;;;;;;;;5091163;28;20977;-56
2021/04/18 14:24:54;;;;;;;8.60;7.70;;;;;;;;;;5090608;28;20403;-55
2021/04/18 14:27:21;;;;;;;8.80;7.90;;;;;;;;;;5091514;28;20396;-55
2021/04/18 14:29:47;;;;;;;10.00;7.93;;;;;;;;;;5091332;28;20510;-55
2021/04/18 14:32:13;;;;;;;9.17;7.57;;;;;;;;;;5091676;28;20403;-55
2021/04/18 14:34:42;;;;;;;9.37;7.50;;;;;;;;;;5091465;28;20404;-55
2021/04/18 14:37:09;;;;;;;14.10;8.30;;;;;;;;;;5091199;28;20538;-55